ePrivacy and GPDR Cookie Consent by Cookie Consent
EmailTwitter


Surface observations / United Kingdom / EGLL (03772)

Regions: Quebec | Canada | USA | Europe | France | UK | Elsewhere
Station
Display
Info & Location for EGLL (03772) | Help decoding METAR

Weather Conditions observed on 2021/10/22 at 07:20 UTC at LONDON/HEATHROW, UK (EGLL)

Sky conditions: partly cloudy.

Temperature: 7.0 Celsius.

Dewpoint: 3.0 Celsius.

Relative Humidity: 76%

Windchill Factor: 4.

Winds: West at 19 km/h or 10 knots.

Mean Sea level Pressure: 101.90 kilopascals.

Horizontal visibility: 6.21 statute miles or 9.94 kilometers.

Height of the Ceiling: 1341 metres ( 4400 feet ).

Coded METAR:

EGLL 220720Z AUTO 27010KT 9999 BKN044 07/03 Q1019=